Huntsville, AL (35812)

2:19 PM CDT on August 29, 2015 (GMT -0500)
APRSWXNET | | Change Station
CLOSE
Current Station
Personal Weather Station
Location: Huntsville, AL
Elevation: 583 ft
Nearby Weather Stations

Elev 583 ft 34.65 °N, 86.68 °W | Updated 1 hour ago

Partly Cloudy
Partly Cloudy
87 °F
Feels Like 95 °F
N
3
Wind Variable Wind from ENE
Gusts 0.0 mph

Today
High -- | Low -- °F
--% Chance of Precip.
Yesterday
High -- | Low -- °F
Precip. -- in
6:17 AM 7:17 PM
Full, 100% visible
Pressure 30.09 in
Visibility 10.0 miles
Clouds Mostly Cloudy 3300 ft
Mostly Cloudy 4200 ft
Heat Index 95 °F
Dew Point 74 °F
Humidity 65%
Rainfall in
Snow Depth Not available.
UV 5 out of 12
Pollen 9.20 out of 12
Air Quality Not available.
Flu Activity Not available.
METAR KHUA 291858Z AUTO 27014G17KT 10SM VCTS BKN033 BKN042 25/20 A3010 RMK AO2 LTG DSNT N AND SW SLP188 T02500199
Pressure 30.09 in
Visibility 10.0 miles
Clouds Mostly Cloudy 3300 ft
Mostly Cloudy 4200 ft
Heat Index 95 °F
Dew Point 74 °F
Humidity 65%
Rainfall in
Snow Depth Not available.
UV 5 out of 12
Pollen 9.20 out of 12
Air Quality Not available.
Flu Activity Not available.
METAR KHUA 291858Z AUTO 27014G17KT 10SM VCTS BKN033 BKN042 25/20 A3010 RMK AO2 LTG DSNT N AND SW SLP188 T02500199

10-Day Weather Forecast

×

Almanac

Astronomy

Aug. 29, 2015 Rise Set
Actual Time
Civil Twilight
Nautical Twilight
Astronomical Twilight
Moon
Length of Visible Light
Length of Day
Tomorrow will be .
, % of the Moon is Illuminated

Today's Extremes

State Highs State Lows

Community

WunderPhotos

Upload Photos

1,850,778 photos uploaded!

WunderBlogs® & News

Nearby

Air Quality

  Air Quality AQ Index Pollutant
Not available.

Snow Depth

Station Depth Elevation

Earthquake Activity

City Distance Mag. Time & Date
Minimum magnitude displayed is 2.5.

Coastal Water Temperatures

Place Temperature

Stations

Nearby Weather Stations

Station Location Temp. Windchill Dew Point Humidity Wind Precip. Elev Updated Type